Time;durP1;ratioP1;P1;durP2;ratioP2;P2;SDS_P1;SDS_P2;PMS_P1;PMS_P2;Temp;Humidity;BMP_temperature;BMP_pressure;BME280_temperature;BME280_humidity;BME280_pressure;Samples;Min_cycle;Max_cycle;Signal;HPM_P1;HPM_P2
2022/05/18 00:00:22;;;;;;;6.25;3.90;;;;;;;17.14;60.31;99268.84;2622074;51;20117;-68
2022/05/18 00:02:52;;;;;;;5.70;3.85;;;;;;;17.16;60.21;99268.66;2618844;54;20565;-68
2022/05/18 00:05:25;;;;;;;5.22;4.32;;;;;;;17.18;60.20;99269.22;2619425;54;20046;-68
2022/05/18 00:07:54;;;;;;;4.43;3.85;;;;;;;17.22;60.03;99279.25;2623901;54;20064;-67
2022/05/18 00:10:24;;;;;;;5.32;3.88;;;;;;;17.26;60.27;99282.28;2624926;54;20026;-68
2022/05/18 00:12:54;;;;;;;5.90;4.30;;;;;;;17.29;60.07;99288.00;2625154;54;20042;-68
2022/05/18 00:15:26;;;;;;;5.95;4.38;;;;;;;17.31;59.68;99288.59;2621594;54;20046;-68
2022/05/18 00:17:56;;;;;;;6.75;3.88;;;;;;;17.36;59.56;99292.47;2618833;54;20054;-69
2022/05/18 00:20:28;;;;;;;7.20;4.10;;;;;;;17.35;59.75;99297.00;2618567;54;20034;-69
2022/05/18 00:23:01;;;;;;;3.90;3.53;;;;;;;17.34;59.48;99293.47;2618657;54;20100;-67
2022/05/18 00:25:33;;;;;;;6.25;4.10;;;;;;;17.43;59.93;99291.34;2618934;54;20563;-67
2022/05/18 00:28:02;;;;;;;4.68;4.03;;;;;;;17.43;59.36;99288.66;2618574;54;20038;-68
2022/05/18 00:30:33;;;;;;;4.63;3.63;;;;;;;17.40;59.72;99290.97;2618733;54;20031;-67
2022/05/18 00:33:05;;;;;;;4.80;3.28;;;;;;;17.23;59.68;99296.13;2617518;47;20556;-68
2022/05/18 00:35:39;;;;;;;5.07;3.72;;;;;;;17.18;59.94;99301.28;2618145;54;20523;-69
2022/05/18 00:38:09;;;;;;;5.43;3.67;;;;;;;17.15;60.47;99294.56;2617585;54;20030;-68
2022/05/18 00:40:42;;;;;;;5.53;3.97;;;;;;;17.17;60.62;99297.81;2618432;54;20035;-68
2022/05/18 00:43:19;;;;;;;8.75;4.05;;;;;;;17.22;60.53;99302.47;2621910;39;20426;-68
2022/05/18 00:45:49;;;;;;;5.25;4.05;;;;;;;17.32;60.38;99297.44;2623181;54;20038;-68
2022/05/18 00:48:19;;;;;;;4.10;3.70;;;;;;;17.35;59.88;99299.66;2617971;39;20410;-68
2022/05/18 00:50:52;;;;;;;3.97;3.50;;;;;;;17.31;60.13;99301.97;2618151;54;20094;-68
2022/05/18 00:53:25;;;;;;;5.40;3.80;;;;;;;17.27;59.82;99308.81;2618167;39;20427;-68
2022/05/18 00:55:59;;;;;;;5.00;4.05;;;;;;;17.29;60.27;99303.22;2617429;51;20026;-68
2022/05/18 00:58:36;;;;;;;4.20;3.80;;;;;;;17.23;60.02;99304.13;2618529;54;20053;-67
2022/05/18 01:01:07;;;;;;;4.80;3.90;;;;;;;17.16;60.24;99304.19;2617610;47;20027;-68
2022/05/18 01:03:41;;;;;;;4.57;3.90;;;;;;;17.15;60.59;99305.25;2617450;54;20049;-68
2022/05/18 01:06:19;;;;;;;5.38;3.60;;;;;;;17.18;60.46;99302.09;2618385;54;20142;-68
2022/05/18 01:08:55;;;;;;;4.50;3.70;;;;;;;17.21;60.08;99299.00;2618098;54;20033;-68
2022/05/18 01:11:25;;;;;;;4.70;3.42;;;;;;;17.26;60.33;99304.47;2618477;54;20150;-67
2022/05/18 01:13:54;;;;;;;5.40;3.90;;;;;;;17.28;60.31;99307.75;2617750;54;20106;-67
2022/05/18 01:16:25;;;;;;;6.28;4.10;;;;;;;17.26;59.93;99309.00;2618382;54;20050;-67
2022/05/18 01:18:58;;;;;;;6.55;4.05;;;;;;;17.21;60.25;99308.88;2617910;54;20032;-67
2022/05/18 01:21:40;;;;;;;5.85;4.00;;;;;;;17.13;60.57;99317.19;2618045;54;20061;-68
2022/05/18 01:24:17;;;;;;;4.85;4.07;;;;;;;17.00;61.00;99318.94;2618055;54;20042;-67
2022/05/18 01:26:51;;;;;;;5.45;4.95;;;;;;;16.89;60.99;99324.19;2617850;54;20035;-68
2022/05/18 01:29:22;;;;;;;;;;;;;;;16.81;61.23;99322.63;2618359;54;20039;-68
2022/05/18 01:31:54;;;;;;;5.32;4.13;;;;;;;16.77;61.34;99324.09;2617840;54;19938;-67
2022/05/18 01:34:26;;;;;;;6.25;4.10;;;;;;;16.78;61.40;99331.09;2618887;39;20518;-68
2022/05/18 01:36:56;;;;;;;4.75;4.35;;;;;;;16.74;61.77;99328.06;2619050;54;20551;-67
2022/05/18 01:39:31;;;;;;;5.15;3.90;;;;;;;16.74;61.73;99324.56;2619340;54;20034;-68
2022/05/18 01:42:12;;;;;;;6.90;4.60;;;;;;;16.69;61.88;99324.34;2619354;54;20042;-68
2022/05/18 01:44:42;;;;;;;7.75;4.35;;;;;;;16.44;62.50;99333.19;2620002;39;20418;-68
2022/05/18 01:47:12;;;;;;;7.20;4.50;;;;;;;16.32;62.54;99327.72;2618397;54;20085;-68
2022/05/18 01:49:45;;;;;;;5.40;4.10;;;;;;;16.27;63.42;99332.09;2619427;54;20041;-68
2022/05/18 01:52:15;;;;;;;4.38;3.95;;;;;;;16.32;62.78;99329.59;2618886;54;20790;-68
2022/05/18 01:54:49;;;;;;;4.45;4.05;;;;;;;16.30;62.82;99337.00;2618885;54;20065;-68
2022/05/18 01:57:21;;;;;;;6.30;3.75;;;;;;;16.25;63.27;99335.00;2618458;54;20026;-68
2022/05/18 01:59:51;;;;;;;5.05;4.57;;;;;;;16.26;62.93;99333.94;2618739;54;20030;-68
2022/05/18 02:02:22;;;;;;;7.53;4.60;;;;;;;16.12;63.61;99337.72;2618803;54;20022;-68
2022/05/18 02:04:52;;;;;;;5.18;4.03;;;;;;;16.14;63.45;99341.00;2618773;54;20027;-68
2022/05/18 02:07:22;;;;;;;5.45;4.40;;;;;;;16.19;63.27;99337.69;2618377;54;20034;-68
2022/05/18 02:09:51;;;;;;;4.70;4.30;;;;;;;16.14;63.23;99335.69;2618146;54;20027;-68
2022/05/18 02:12:23;;;;;;;5.57;4.35;;;;;;;16.14;63.50;99338.34;2618514;54;20042;-68
2022/05/18 02:14:53;;;;;;;5.03;4.35;;;;;;;16.16;63.44;99335.44;2618595;54;20027;-68
2022/05/18 02:17:23;;;;;;;5.43;4.70;;;;;;;16.11;63.36;99333.44;2617581;54;20034;-68
2022/05/18 02:19:53;;;;;;;6.45;4.90;;;;;;;16.13;63.49;99330.56;2618477;54;20533;-68
2022/05/18 02:22:22;;;;;;;17.75;12.00;;;;;;;16.12;63.68;99332.41;2617372;51;20031;-67
2022/05/18 02:24:52;;;;;;;8.25;5.55;;;;;;;16.15;63.53;99328.50;2618410;54;20046;-67
2022/05/18 02:27:24;;;;;;;5.63;4.75;;;;;;;16.22;63.83;99332.75;2618452;54;20023;-69
2022/05/18 02:29:54;;;;;;;7.90;5.85;;;;;;;16.25;62.97;99327.00;2617934;54;20034;-68
2022/05/18 02:32:24;;;;;;;6.72;4.57;;;;;;;16.09;63.45;99325.66;2618490;54;20038;-68
2022/05/18 02:34:53;;;;;;;7.90;4.53;;;;;;;15.87;63.81;99335.00;2618550;54;20560;-68
2022/05/18 02:37:23;;;;;;;5.18;4.68;;;;;;;15.82;64.13;99329.50;2618407;54;20568;-68
2022/05/18 02:39:53;;;;;;;6.65;5.78;;;;;;;15.90;64.27;99339.13;2618938;39;20441;-68
2022/05/18 02:42:25;;;;;;;6.65;4.85;;;;;;;15.92;63.98;99342.38;2617592;47;20546;-69
2022/05/18 02:44:55;;;;;;;7.75;4.78;;;;;;;15.97;64.15;99348.72;2617835;54;20046;-69
2022/05/18 02:47:25;;;;;;;4.82;4.13;;;;;;;15.99;63.93;99346.63;2618091;54;20046;-69
2022/05/18 02:49:54;;;;;;;7.85;5.05;;;;;;;15.98;63.79;99346.84;2618144;54;20026;-69
2022/05/18 02:52:24;;;;;;;9.13;4.88;;;;;;;15.91;64.10;99348.75;2618304;54;20034;-68
2022/05/18 02:57:38;;;;;;;6.68;4.93;;;;;;;15.77;64.01;99345.34;2617937;54;20057;-69
2022/05/18 03:00:10;;;;;;;5.28;4.55;;;;;;;15.75;64.46;99350.03;2618858;54;20057;-69
2022/05/18 03:02:40;;;;;;;7.18;4.47;;;;;;;15.79;64.14;99343.25;2622824;54;20630;-69
2022/05/18 03:05:10;;;;;;;5.82;4.82;;;;;;;15.73;64.02;99360.13;2620120;54;20030;-69
2022/05/18 03:07:40;;;;;;;9.40;4.93;;;;;;;15.73;64.36;99357.44;2619006;54;20561;-69
2022/05/18 03:10:11;;;;;;;5.05;4.55;;;;;;;15.68;64.46;99357.28;2623289;54;20038;-69
2022/05/18 03:12:43;;;;;;;6.55;4.78;;;;;;;15.62;64.75;99361.56;2619094;54;20029;-70
2022/05/18 03:15:13;;;;;;;5.00;4.50;;;;;;;15.62;64.40;99358.91;2618727;47;20077;-70
2022/05/18 03:17:43;;;;;;;6.65;4.65;;;;;;;15.56;64.56;99362.41;2619711;54;20133;-70
2022/05/18 03:23:33;;;;;;;6.95;4.63;;;;;;;15.44;65.28;99383.56;2619613;54;20030;-69
2022/05/18 03:25:45;;;;;;;6.25;4.97;;;;;;;15.35;65.52;99382.97;2619191;54;20034;-68
2022/05/18 03:28:17;;;;;;;7.15;4.80;;;;;;;15.38;65.75;99378.25;2618145;54;20037;-69
2022/05/18 03:30:47;;;;;;;6.72;5.18;;;;;;;15.30;65.45;99377.44;2619599;54;20034;-69
2022/05/18 03:33:17;;;;;;;5.22;4.72;;;;;;;15.26;65.63;99383.41;2619384;54;20014;-69
2022/05/18 03:35:49;;;;;;;6.82;4.97;;;;;;;15.34;66.00;99389.31;2618572;54;20030;-70
2022/05/18 03:38:19;;;;;;;7.80;4.97;;;;;;;15.40;65.60;99385.00;2618031;47;20034;-69
2022/05/18 03:40:48;;;;;;;5.90;4.82;;;;;;;15.45;65.36;99390.53;2618523;54;20038;-69
2022/05/18 03:43:22;;;;;;;6.68;4.65;;;;;;;15.51;65.76;99396.84;2618297;47;20034;-69
2022/05/18 03:45:51;;;;;;;5.65;4.90;;;;;;;15.50;65.43;99396.03;2618677;39;20446;-69
2022/05/18 03:48:21;;;;;;;5.20;4.60;;;;;;;15.45;65.53;99398.53;2618759;54;20044;-69
2022/05/18 03:50:51;;;;;;;5.43;4.75;;;;;;;15.33;65.39;99400.19;2619548;54;20034;-69
2022/05/18 03:53:23;;;;;;;5.93;5.32;;;;;;;15.14;65.60;99395.72;2621219;54;20031;-70
2022/05/18 03:55:53;;;;;;;6.03;4.40;;;;;;;15.19;65.76;99396.75;2622106;39;20277;-68
2022/05/18 03:58:26;;;;;;;5.28;4.78;;;;;;;15.25;66.14;99403.06;2619290;49;20038;-70
2022/05/18 04:01:00;;;;;;;6.95;4.88;;;;;;;15.18;66.16;99403.06;2618542;54;20035;-67
2022/05/18 04:03:32;;;;;;;5.57;4.55;;;;;;;15.18;66.30;99400.41;2617826;47;20050;-67
2022/05/18 04:06:01;;;;;;;7.65;4.38;;;;;;;15.24;66.10;99404.09;2618246;54;20053;-67
2022/05/18 04:08:31;;;;;;;7.45;4.72;;;;;;;15.31;66.12;99404.94;2617198;54;20034;-70
2022/05/18 04:11:01;;;;;;;6.93;4.70;;;;;;;15.38;66.02;99403.03;2619391;54;20157;-69
2022/05/18 04:13:33;;;;;;;5.90;4.72;;;;;;;15.35;66.16;99412.28;2619965;54;20018;-69
2022/05/18 04:16:03;;;;;;;6.20;5.10;;;;;;;15.32;65.63;99403.88;2620080;54;20022;-67
2022/05/18 04:18:34;;;;;;;7.65;4.88;;;;;;;15.19;65.95;99393.28;2619329;54;20086;-67
2022/05/18 04:21:06;;;;;;;8.95;5.75;;;;;;;15.27;66.43;99398.38;2622223;39;20417;-67
2022/05/18 04:23:38;;;;;;;9.23;6.55;;;;;;;15.44;66.00;99399.56;2622047;54;20041;-67
2022/05/18 04:26:08;;;;;;;7.05;5.40;;;;;;;15.48;65.63;99402.63;2621518;54;20053;-67
2022/05/18 04:28:40;;;;;;;13.60;5.63;;;;;;;15.37;65.75;99404.06;2621586;39;20450;-67
2022/05/18 04:31:10;;;;;;;6.15;5.43;;;;;;;15.28;66.31;99403.47;2621922;54;20034;-66
2022/05/18 04:33:40;;;;;;;5.78;4.85;;;;;;;15.18;66.16;99405.75;2621836;54;20062;-66
2022/05/18 04:36:09;;;;;;;8.20;4.93;;;;;;;15.17;66.56;99411.28;2619689;47;20074;-67
2022/05/18 04:38:39;;;;;;;7.32;4.80;;;;;;;15.27;66.73;99409.03;2620561;54;20027;-70
2022/05/18 04:41:11;;;;;;;7.35;5.70;;;;;;;15.42;66.60;99412.25;2621718;39;20411;-68
2022/05/18 04:43:43;;;;;;;10.93;5.78;;;;;;;15.39;66.01;99417.16;2621936;39;20411;-70
2022/05/18 04:46:13;;;;;;;8.65;5.50;;;;;;;15.39;66.63;99418.03;2621037;54;20745;-69
2022/05/18 04:48:43;;;;;;;6.55;4.97;;;;;;;15.41;65.97;99410.63;2621186;54;20062;-68
2022/05/18 04:51:12;;;;;;;6.88;5.22;;;;;;;15.54;66.12;99409.75;2618831;54;20035;-67
2022/05/18 04:53:42;;;;;;;7.40;5.78;;;;;;;15.65;65.82;99416.31;2617733;47;20035;-71
2022/05/18 04:56:11;;;;;;;6.88;5.72;;;;;;;15.71;65.41;99418.94;2618484;54;20037;-68
2022/05/18 04:58:44;;;;;;;7.97;5.35;;;;;;;15.81;65.54;99416.66;2617992;54;20042;-68
2022/05/18 05:01:13;;;;;;;5.90;5.28;;;;;;;15.92;64.94;99419.69;2618266;54;20027;-68
2022/05/18 05:03:43;;;;;;;7.30;5.65;;;;;;;16.03;65.06;99416.38;2617934;54;20031;-66
2022/05/18 05:06:13;;;;;;;5.80;5.07;;;;;;;16.19;64.41;99423.06;2618445;54;20037;-69
2022/05/18 05:08:43;;;;;;;8.50;6.40;;;;;;;16.31;64.24;99429.34;2618301;39;20466;-69
2022/05/18 05:11:12;;;;;;;9.93;5.60;;;;;;;16.32;63.63;99426.44;2618325;54;20053;-65
2022/05/18 05:13:45;;;;;;;7.75;5.50;;;;;;;16.43;63.75;99426.81;2618207;54;20072;-67
2022/05/18 05:16:14;;;;;;;10.52;6.07;;;;;;;16.48;63.31;99427.78;2618352;54;20029;-67
2022/05/18 05:18:49;;;;;;;6.70;5.50;;;;;;;16.59;63.21;99431.63;2618004;54;20057;-69
2022/05/18 05:21:18;;;;;;;8.25;7.45;;;;;;;16.69;63.03;99429.28;2618339;54;20026;-67
2022/05/18 05:23:48;;;;;;;6.22;5.38;;;;;;;16.72;62.49;99436.88;2618417;54;20057;-67
2022/05/18 05:26:18;;;;;;;7.95;5.90;;;;;;;16.74;62.83;99442.84;2618607;54;20026;-66
2022/05/18 05:28:50;;;;;;;8.98;6.45;;;;;;;16.77;62.72;99439.72;2617861;54;20039;-67
2022/05/18 05:31:20;;;;;;;5.97;4.85;;;;;;;16.80;62.74;99444.63;2617744;54;20034;-65
2022/05/18 05:33:49;;;;;;;5.80;5.20;;;;;;;16.88;62.76;99448.91;2617925;54;20035;-67
2022/05/18 05:36:19;;;;;;;7.53;5.45;;;;;;;17.00;62.45;99441.00;2619034;54;20043;-67
2022/05/18 05:38:49;;;;;;;8.40;5.72;;;;;;;17.14;62.28;99442.50;2619209;54;20029;-67
2022/05/18 05:41:19;;;;;;;7.75;5.53;;;;;;;17.29;61.86;99442.97;2620443;54;20030;-66
2022/05/18 05:43:52;;;;;;;8.75;5.60;;;;;;;17.35;61.14;99443.97;2618762;54;20049;-67
2022/05/18 05:46:21;;;;;;;6.38;5.43;;;;;;;17.42;61.02;99446.56;2618933;47;20027;-67
2022/05/18 05:48:51;;;;;;;8.98;4.97;;;;;;;17.45;60.93;99440.78;2620344;54;20031;-66
2022/05/18 05:51:23;;;;;;;6.35;5.30;;;;;;;17.49;60.58;99442.78;2620353;54;20031;-66
2022/05/18 05:53:54;;;;;;;5.38;4.75;;;;;;;17.61;61.02;99436.72;2619641;47;20038;-67
2022/05/18 05:56:24;;;;;;;9.88;7.18;;;;;;;17.74;60.11;99434.72;2617918;54;20030;-67
2022/05/18 05:58:56;;;;;;;7.07;5.78;;;;;;;17.77;60.06;99430.78;2618574;54;20026;-66
2022/05/18 06:01:26;;;;;;;9.20;5.85;;;;;;;17.80;60.38;99439.19;2618883;54;20031;-66
2022/05/18 06:03:55;;;;;;;8.55;6.43;;;;;;;17.89;59.70;99433.53;2618077;47;20049;-66
2022/05/18 06:06:25;;;;;;;7.28;5.47;;;;;;;17.95;59.84;99430.75;2619276;54;20056;-67
2022/05/18 06:08:59;;;;;;;15.43;6.50;;;;;;;18.04;59.27;99432.09;2623016;54;20030;-67
2022/05/18 06:11:29;;;;;;;8.90;4.97;;;;;;;18.14;59.74;99426.19;2623911;54;20554;-67
2022/05/18 06:14:01;;;;;;;7.15;5.40;;;;;;;18.37;58.73;99424.63;2623271;47;20046;-69
2022/05/18 06:16:31;;;;;;;9.25;5.20;;;;;;;18.46;59.12;99423.28;2624169;54;20041;-67
2022/05/18 06:19:01;;;;;;;7.45;5.75;;;;;;;18.61;58.27;99430.88;2623296;54;20041;-67
2022/05/18 06:21:31;;;;;;;11.55;9.18;;;;;;;18.70;58.45;99429.56;2621989;54;20031;-69
2022/05/18 06:24:01;;;;;;;5.63;5.03;;;;;;;18.96;57.97;99428.28;2623433;54;20038;-67
2022/05/18 06:26:30;;;;;;;5.10;4.60;;;;;;;19.15;57.20;99420.97;2624376;39;20524;-68
2022/05/18 06:29:02;;;;;;;6.25;4.40;;;;;;;19.27;56.99;99430.63;2623855;54;20025;-67
2022/05/18 06:31:32;;;;;;;4.25;3.65;;;;;;;19.37;57.33;99430.03;2623925;54;20050;-67
2022/05/18 06:34:08;;;;;;;5.57;4.35;;;;;;;19.47;56.68;99435.63;2622292;54;20030;-67
2022/05/18 06:36:38;;;;;;;5.00;4.13;;;;;;;19.59;55.87;99435.59;2621517;54;20042;-68
2022/05/18 06:39:07;;;;;;;5.53;4.47;;;;;;;19.75;55.61;99428.72;2621990;54;20042;-67
2022/05/18 06:41:38;;;;;;;7.93;3.95;;;;;;;19.90;55.38;99431.72;2624303;54;20038;-68
2022/05/18 06:44:10;;;;;;;5.78;4.00;;;;;;;20.06;55.21;99432.03;2623123;54;20613;-70
2022/05/18 06:46:41;;;;;;;5.35;4.63;;;;;;;20.23;54.39;99432.88;2623130;54;20077;-68
2022/05/18 06:49:13;;;;;;;5.85;3.92;;;;;;;20.28;54.40;99425.72;2624270;54;20027;-67
2022/05/18 06:51:45;;;;;;;4.05;3.03;;;;;;;20.44;53.48;99431.38;2624013;54;20145;-66
2022/05/18 06:54:17;;;;;;;7.90;4.47;;;;;;;20.62;53.64;99427.72;2622510;47;20554;-66
2022/05/18 06:57:08;;;;;;;7.15;4.95;;;;;;;20.81;53.15;99437.13;2623859;54;20061;-67
2022/05/18 06:59:40;;;;;;;4.40;3.63;;;;;;;20.98;52.53;99442.50;2623865;54;20037;-66
2022/05/18 07:02:10;;;;;;;4.15;3.25;;;;;;;21.08;52.37;99436.50;2622643;54;20034;-67
2022/05/18 07:04:39;;;;;;;8.43;6.28;;;;;;;21.24;52.23;99430.28;2623258;54;20560;-66
2022/05/18 07:07:20;;;;;;;6.57;3.03;;;;;;;21.37;51.72;99426.47;2623156;54;20577;-66
2022/05/18 07:09:50;;;;;;;3.65;2.95;;;;;;;21.39;51.00;99429.69;2622299;54;20030;-67
2022/05/18 07:12:19;;;;;;;4.15;3.50;;;;;;;21.42;51.77;99430.03;2623221;54;20034;-66
2022/05/18 07:14:51;;;;;;;3.70;3.17;;;;;;;21.50;51.37;99420.72;2623410;54;20042;-66
2022/05/18 07:17:22;;;;;;;4.15;3.35;;;;;;;21.59;51.34;99427.28;2623028;54;20033;-66
2022/05/18 07:20:11;;;;;;;7.65;3.50;;;;;;;21.72;51.07;99423.44;2621278;54;20533;-67
2022/05/18 07:22:46;;;;;;;7.05;3.95;;;;;;;21.81;50.46;99429.19;2622567;54;20538;-66
2022/05/18 07:25:15;;;;;;;4.07;2.80;;;;;;;21.86;50.62;99434.63;2623023;54;20034;-65
2022/05/18 07:27:45;;;;;;;7.50;3.42;;;;;;;22.05;49.90;99435.13;2623333;54;20049;-66
2022/05/18 07:30:38;;;;;;;3.63;3.05;;;;;;;22.25;49.95;99441.56;2620054;47;20026;-65
2022/05/18 07:33:07;;;;;;;4.57;3.05;;;;;;;22.36;49.38;99438.97;2619323;54;20038;-66
2022/05/18 07:35:37;;;;;;;4.38;2.92;;;;;;;22.46;48.77;99436.38;2619273;54;20023;-67
2022/05/18 07:38:07;;;;;;;6.95;3.58;;;;;;;22.57;48.58;99437.28;2619221;54;20035;-65
2022/05/18 07:40:57;;;;;;;4.50;2.80;;;;;;;22.60;48.69;99440.28;2618604;47;20166;-65
2022/05/18 07:43:27;;;;;;;3.83;3.08;;;;;;;22.66;47.89;99441.16;2619011;54;20037;-65
2022/05/18 07:45:59;;;;;;;5.50;3.40;;;;;;;22.72;47.77;99435.53;2618406;54;20026;-65
2022/05/18 07:48:30;;;;;;;4.43;3.40;;;;;;;22.83;47.89;99436.44;2618729;54;20039;-65
2022/05/18 07:51:00;;;;;;;8.30;2.97;;;;;;;22.85;48.19;99438.88;2618807;54;20282;-64
2022/05/18 07:53:29;;;;;;;6.10;3.50;;;;;;;22.97;48.49;99434.94;2618935;54;20022;-65
2022/05/18 07:55:59;;;;;;;7.70;3.30;;;;;;;23.19;47.11;99434.03;2618808;54;20038;-65
2022/05/18 07:58:29;;;;;;;4.10;3.63;;;;;;;23.24;46.28;99431.38;2618554;54;20057;-65
2022/05/18 10:19:51;;;;;;;5.13;2.50;;;;;;;27.07;33.44;99372.03;2619242;46;20035;-70
2022/05/18 10:22:25;;;;;;;3.45;2.63;;;;;;;27.27;33.11;99372.94;2618799;54;20041;-67
2022/05/18 10:25:06;;;;;;;3.38;2.72;;;;;;;27.41;32.85;99376.56;2618505;54;20542;-69
2022/05/18 10:27:39;;;;;;;2.13;1.92;;;;;;;27.42;32.77;99370.03;2618327;54;20057;-68
2022/05/18 10:30:15;;;;;;;5.07;2.50;;;;;;;27.28;32.83;99369.94;2618281;54;20043;-68
2022/05/18 10:32:58;;;;;;;3.65;2.70;;;;;;;27.23;32.95;99367.28;2618487;54;20022;-68
2022/05/18 10:35:51;;;;;;;2.80;2.20;;;;;;;27.18;33.66;99359.19;2618426;54;20129;-70
2022/05/18 10:38:24;;;;;;;2.65;2.42;;;;;;;27.20;34.11;99358.91;2618345;54;20030;-68
2022/05/18 10:40:57;;;;;;;3.13;2.50;;;;;;;27.44;32.56;99361.63;2618326;54;20026;-68
2022/05/18 10:43:34;;;;;;;4.53;2.42;;;;;;;27.53;32.42;99355.25;2617799;54;20026;-68
2022/05/18 10:46:19;;;;;;;3.30;2.50;;;;;;;27.54;32.38;99351.44;2618223;54;20063;-67
2022/05/18 10:48:55;;;;;;;4.18;2.10;;;;;;;27.54;32.54;99348.72;2617602;54;20026;-68
2022/05/18 10:51:35;;;;;;;2.90;2.47;;;;;;;27.70;32.29;99345.81;2617643;54;20034;-69
2022/05/18 10:54:16;;;;;;;4.00;2.38;;;;;;;27.92;32.14;99339.81;2618335;54;20042;-69
2022/05/18 10:56:47;;;;;;;4.78;2.40;;;;;;;28.05;31.86;99336.38;2618393;54;20034;-69
2022/05/18 10:59:25;;;;;;;3.22;2.00;;;;;;;28.22;31.64;99336.66;2618252;39;20090;-69
2022/05/18 11:02:02;;;;;;;3.05;2.17;;;;;;;28.34;30.53;99341.63;2618239;54;20045;-69
2022/05/18 11:04:49;;;;;;;3.17;2.10;;;;;;;28.32;30.20;99339.19;2617654;47;20033;-69
2022/05/18 11:07:22;;;;;;;3.78;2.70;;;;;;;28.27;30.08;99335.75;2617901;54;20034;-70
2022/05/18 11:09:52;;;;;;;2.75;1.70;;;;;;;27.97;29.98;99334.34;2617920;54;20026;-69
2022/05/18 11:12:33;;;;;;;5.75;2.22;;;;;;;27.83;30.00;99326.91;2618535;54;20041;-68
2022/05/18 11:15:08;;;;;;;4.22;1.95;;;;;;;27.94;30.17;99327.56;2618158;54;20039;-69
2022/05/18 11:17:52;;;;;;;4.30;1.77;;;;;;;28.13;29.17;99327.56;2617789;54;20046;-69
2022/05/18 11:20:35;;;;;;;2.33;1.77;;;;;;;28.20;29.06;99319.81;2617944;54;20031;-68
2022/05/18 11:23:21;;;;;;;5.40;2.00;;;;;;;28.02;29.36;99321.47;2618248;54;20038;-68
2022/05/18 11:26:01;;;;;;;2.60;1.80;;;;;;;27.85;29.53;99321.19;2617601;51;20057;-68
2022/05/18 11:29:00;;;;;;;4.85;2.03;;;;;;;27.93;29.95;99311.56;2618561;54;20125;-70
2022/05/18 11:31:58;;;;;;;2.92;1.80;;;;;;;28.19;29.68;99315.50;2619877;39;20426;-68
2022/05/18 11:34:37;;;;;;;4.53;3.20;;;;;;;28.48;29.26;99311.78;2619428;54;20038;-69
2022/05/18 11:37:24;;;;;;;2.65;2.30;;;;;;;28.45;29.30;99306.94;2619677;54;20044;-69
2022/05/18 11:40:10;;;;;;;4.20;1.52;;;;;;;28.41;28.91;99303.19;2619702;54;20554;-69
2022/05/18 11:42:54;;;;;;;2.83;2.13;;;;;;;28.58;28.69;99306.19;2621930;54;20135;-69
2022/05/18 11:45:34;;;;;;;5.05;2.13;;;;;;;28.85;28.36;99310.84;2624826;47;20030;-70
2022/05/18 11:48:15;;;;;;;2.58;1.60;;;;;;;28.97;28.42;99304.94;2625153;54;20033;-73
2022/05/18 11:50:54;;;;;;;2.60;2.40;;;;;;;29.03;27.68;99301.81;2625180;54;20030;-70
2022/05/18 11:53:36;;;;;;;3.60;1.70;;;;;;;29.13;28.51;99304.34;2622225;54;20038;-71
2022/05/18 11:56:32;;;;;;;4.07;2.08;;;;;;;29.27;27.77;99293.44;2623088;54;20030;-71
2022/05/18 11:59:44;;;;;;;3.15;1.92;;;;;;;29.17;27.31;99295.56;2625521;54;20030;-70
2022/05/18 12:02:51;;;;;;;3.55;1.80;;;;;;;28.82;27.80;99290.50;2621585;54;20570;-69
2022/05/18 12:05:36;;;;;;;2.85;1.70;;;;;;;28.97;27.80;99281.25;2621657;54;20042;-69
2022/05/18 12:08:27;;;;;;;4.07;1.95;;;;;;;29.08;28.26;99281.88;2621978;54;20038;-69
2022/05/18 12:11:06;;;;;;;3.53;2.60;;;;;;;29.31;28.08;99280.00;2622057;54;20576;-69
2022/05/18 12:14:01;;;;;;;4.22;1.92;;;;;;;29.42;27.45;99294.22;2622917;54;20030;-67
2022/05/18 16:10:08;;;;;;;2.40;1.95;;;;;;;31.38;24.43;99159.59;2617169;54;50738;-68
2022/05/18 16:12:40;;;;;;;3.53;2.60;;;;;;;31.24;24.46;99153.47;2618773;54;20038;-67
2022/05/18 16:15:11;;;;;;;2.20;1.98;;;;;;;31.14;24.55;99160.03;2618966;54;20057;-71
2022/05/18 16:17:41;;;;;;;6.40;2.67;;;;;;;31.23;24.30;99162.75;2618149;54;20030;-68
2022/05/18 16:20:11;;;;;;;3.00;2.80;;;;;;;31.19;24.13;99154.44;2618701;54;20043;-68
2022/05/18 16:22:43;;;;;;;8.10;2.72;;;;;;;31.27;24.65;99158.25;2618500;54;20048;-69
2022/05/18 16:25:23;;;;;;;6.85;2.25;;;;;;;31.44;24.27;99165.72;2619308;47;20027;-69
2022/05/18 16:27:53;;;;;;;3.28;2.10;;;;;;;31.43;24.34;99161.34;2623283;54;20082;-68
2022/05/18 16:30:24;;;;;;;4.88;1.80;;;;;;;31.50;23.88;99167.94;2623439;54;20030;-67
2022/05/18 16:33:14;;;;;;;2.85;1.90;;;;;;;31.43;23.80;99164.06;2621759;47;20034;-67
2022/05/18 16:35:44;;;;;;;3.95;1.80;;;;;;;31.37;23.83;99160.72;2623187;54;20026;-68
2022/05/18 16:38:36;;;;;;;3.72;2.00;;;;;;;31.26;24.24;99156.66;2623900;54;20034;-67
2022/05/18 16:41:08;;;;;;;1.77;1.55;;;;;;;31.24;24.13;99159.72;2623900;54;20082;-67
2022/05/18 16:43:40;;;;;;;2.20;1.98;;;;;;;31.44;23.87;99158.31;2623010;54;20119;-68
2022/05/18 16:46:10;;;;;;;5.00;2.17;;;;;;;31.59;23.81;99162.47;2622030;54;20027;-68
2022/05/18 16:48:39;;;;;;;3.58;1.90;;;;;;;31.53;24.08;99156.38;2621245;54;20068;-68
2022/05/18 16:51:09;;;;;;;11.57;8.27;;;;;;;31.61;24.21;99151.22;2621656;54;20146;-66
2022/05/18 16:53:39;;;;;;;3.45;2.67;;;;;;;31.80;23.73;99159.84;2621550;54;20045;-68
2022/05/18 16:56:12;;;;;;;4.43;3.45;;;;;;;31.81;23.87;99145.88;2622254;54;20031;-67
2022/05/18 16:58:42;;;;;;;5.22;2.58;;;;;;;31.83;23.52;99149.09;2620818;54;20041;-68
2022/05/18 17:01:12;;;;;;;4.72;3.10;;;;;;;31.78;23.75;99151.19;2622207;54;20030;-67
2022/05/18 17:03:42;;;;;;;2.45;2.25;;;;;;;31.62;23.77;99148.16;2622953;54;20525;-67
2022/05/18 17:06:13;;;;;;;3.03;2.17;;;;;;;31.57;23.70;99145.59;2622821;54;20038;-67
2022/05/18 17:08:51;;;;;;;2.53;2.28;;;;;;;31.65;23.46;99144.00;2622625;54;20042;-68
2022/05/18 17:11:29;;;;;;;2.70;1.98;;;;;;;31.65;23.30;99142.06;2622703;54;20031;-70
2022/05/18 17:14:02;;;;;;;4.68;2.60;;;;;;;31.70;23.57;99141.09;2620732;46;20042;-71
2022/05/18 17:16:32;;;;;;;4.40;2.15;;;;;;;31.80;23.55;99146.19;2621685;54;20038;-69
2022/05/18 17:19:02;;;;;;;5.97;2.40;;;;;;;31.95;23.44;99142.97;2621895;39;20454;-68
2022/05/18 17:21:32;;;;;;;4.72;2.40;;;;;;;32.03;23.01;99149.53;2622002;54;20027;-67
2022/05/18 17:24:01;;;;;;;4.70;2.00;;;;;;;32.11;22.83;99145.97;2621369;54;20042;-70
2022/05/18 17:26:36;;;;;;;4.47;2.10;;;;;;;32.21;23.23;99148.38;2621406;54;20037;-68
2022/05/18 17:29:08;;;;;;;3.33;2.13;;;;;;;32.28;22.53;99147.84;2620914;54;20796;-69
2022/05/18 17:31:38;;;;;;;3.83;2.10;;;;;;;32.05;22.88;99150.84;2620806;54;20040;-70
2022/05/18 17:34:10;;;;;;;1.75;1.63;;;;;;;31.78;22.93;99145.72;2619646;47;20027;-69
2022/05/18 17:36:40;;;;;;;2.28;1.80;;;;;;;31.50;23.11;99148.00;2619290;54;20065;-68
2022/05/18 17:39:10;;;;;;;3.22;1.95;;;;;;;31.08;23.71;99140.28;2618168;47;20034;-70
2022/05/18 17:41:43;;;;;;;2.47;2.28;;;;;;;30.86;23.70;99148.59;2619639;54;20026;-69
2022/05/18 17:44:13;;;;;;;4.03;2.30;;;;;;;30.71;24.04;99141.63;2619382;54;20034;-69
2022/05/18 17:46:43;;;;;;;4.55;2.83;;;;;;;30.52;24.25;99141.91;2619903;39;20428;-69
2022/05/18 17:49:17;;;;;;;4.25;2.88;;;;;;;30.22;24.55;99143.56;2618842;54;20031;-68
2022/05/18 17:51:48;;;;;;;3.70;2.38;;;;;;;30.00;25.21;99147.09;2618448;46;20054;-68
2022/05/18 17:54:18;;;;;;;2.60;2.10;;;;;;;29.83;25.38;99150.53;2619327;54;20031;-68
2022/05/18 17:56:50;;;;;;;5.57;2.60;;;;;;;29.68;26.00;99142.75;2619561;54;20026;-68
2022/05/18 17:59:22;;;;;;;6.18;3.13;;;;;;;29.53;25.68;99141.19;2618976;54;20034;-69
2022/05/18 18:01:54;;;;;;;3.47;2.33;;;;;;;29.40;26.13;99142.03;2621430;54;20030;-69
2022/05/18 18:04:24;;;;;;;2.70;2.10;;;;;;;29.19;26.66;99139.00;2620311;54;20166;-69
2022/05/18 18:06:54;;;;;;;2.97;1.88;;;;;;;29.02;26.56;99150.50;2619458;54;20031;-68
2022/05/18 18:09:25;;;;;;;3.47;2.88;;;;;;;28.81;26.91;99144.69;2620933;54;20392;-69
2022/05/18 18:11:57;;;;;;;4.47;2.50;;;;;;;28.59;26.97;99150.84;2619982;54;20030;-67
2022/05/18 18:14:27;;;;;;;3.78;3.05;;;;;;;28.41;27.88;99154.47;2619873;54;20046;-70
2022/05/18 18:16:57;;;;;;;2.75;2.08;;;;;;;28.35;27.75;99158.38;2619700;54;20049;-68
2022/05/18 18:19:28;;;;;;;5.60;2.20;;;;;;;28.24;28.22;99163.19;2619794;54;20037;-69